createdAt,value
2023-04-09T00:00:44.972Z,69.31
2023-04-09T00:03:11.906Z,69.63
2023-04-09T00:05:40.987Z,70.74
2023-04-09T00:08:07.996Z,70.26
2023-04-09T00:10:34.889Z,70.09
2023-04-09T00:13:01.610Z,70.18
2023-04-09T00:15:31.625Z,69.84
2023-04-09T00:17:59.525Z,69.97
2023-04-09T00:20:26.421Z,70.98
2023-04-09T00:22:53.292Z,70.80
2023-04-09T00:25:20.218Z,71.60
2023-04-09T00:27:47.122Z,71.44
2023-04-09T00:30:13.995Z,71.83
2023-04-09T00:32:41.132Z,71.86
2023-04-09T00:35:08.652Z,70.63
2023-04-09T00:37:35.403Z,70.89
2023-04-09T00:40:02.295Z,70.58
2023-04-09T00:42:35.050Z,70.74
2023-04-09T00:45:02.287Z,71.27
2023-04-09T00:47:30.564Z,71.51
2023-04-09T00:49:57.908Z,69.97
2023-04-09T00:52:24.845Z,68.35
2023-04-09T00:54:52.124Z,70.32
2023-04-09T00:57:19.743Z,68.75
2023-04-09T00:59:46.841Z,69.83
2023-04-09T01:02:13.728Z,70.31
2023-04-09T01:04:42.076Z,70.50
2023-04-09T01:07:27.896Z,71.45
2023-04-09T01:10:05.584Z,71.98
2023-04-09T01:12:54.711Z,72.58
2023-04-09T01:15:31.310Z,72.99
2023-04-09T01:18:19.278Z,71.68
2023-04-09T01:20:58.164Z,72.40
2023-04-09T01:23:37.522Z,70.40
2023-04-09T01:26:14.624Z,71.57
2023-04-09T01:28:51.086Z,71.83
2023-04-09T01:31:20.647Z,72.11
2023-04-09T01:33:47.930Z,71.08
2023-04-09T01:36:15.474Z,69.55
2023-04-09T01:38:44.491Z,70.48
2023-04-09T01:41:17.100Z,70.93
2023-04-09T01:43:45.566Z,70.90
2023-04-09T01:46:13.545Z,70.92
2023-04-09T01:48:41.086Z,70.59
2023-04-09T01:51:07.845Z,70.68
2023-04-09T01:53:34.702Z,71.42
2023-04-09T01:56:01.975Z,72.28
2023-04-09T01:58:28.875Z,71.80
2023-04-09T02:01:21.036Z,71.95
2023-04-09T02:03:54.410Z,72.98
2023-04-09T02:06:46.926Z,73.53
2023-04-09T02:09:17.139Z,73.51
2023-04-09T02:11:47.676Z,73.54
2023-04-09T02:14:15.981Z,73.62
2023-04-09T02:16:43.028Z,73.50
2023-04-09T02:19:11.101Z,73.18
2023-04-09T02:21:37.994Z,74.01
2023-04-09T02:24:05.042Z,75.04
2023-04-09T02:26:31.717Z,75.58
2023-04-09T02:28:59.246Z,75.39
2023-04-09T02:31:25.980Z,75.56
2023-04-09T02:33:54.238Z,74.49
2023-04-09T02:36:21.083Z,74.81
2023-04-09T02:38:47.799Z,75.14
2023-04-09T02:41:14.579Z,75.33
2023-04-09T02:43:41.333Z,75.33
2023-04-09T02:46:08.692Z,75.68
2023-04-09T02:48:36.577Z,75.79
2023-04-09T02:51:06.337Z,74.75
2023-04-09T02:53:33.225Z,75.51
2023-04-09T02:55:59.956Z,75.52
2023-04-09T02:58:26.743Z,74.65
2023-04-09T03:00:53.493Z,75.83
2023-04-09T03:03:20.489Z,75.98
2023-04-09T03:05:47.215Z,75.67
2023-04-09T03:08:14.263Z,76.43
2023-04-09T03:10:40.943Z,76.25
2023-04-09T03:13:07.748Z,76.65
2023-04-09T03:15:34.498Z,76.60
2023-04-09T03:18:01.310Z,75.12
2023-04-09T03:20:27.960Z,75.05
2023-04-09T03:22:54.773Z,74.75
2023-04-09T03:25:36.540Z,75.94
2023-04-09T03:28:11.399Z,76.21
2023-04-09T03:30:44.890Z,76.80
2023-04-09T03:33:12.342Z,75.92
2023-04-09T03:35:54.497Z,76.22
2023-04-09T03:38:40.798Z,76.33
2023-04-09T03:41:16.155Z,75.65
2023-04-09T03:43:42.903Z,73.76
2023-04-09T03:46:13.387Z,72.89
2023-04-09T03:48:41.658Z,73.72
2023-04-09T03:51:13.337Z,74.57
2023-04-09T03:53:44.667Z,74.83
2023-04-09T03:56:11.474Z,73.71
2023-04-09T03:58:38.768Z,73.06
2023-04-09T04:01:07.414Z,69.93
2023-04-09T04:03:42.202Z,70.68
2023-04-09T04:06:14.364Z,71.56
2023-04-09T04:08:49.740Z,72.65
2023-04-09T04:11:19.271Z,71.41
2023-04-09T04:13:46.892Z,70.55
2023-04-09T04:16:13.652Z,72.30
2023-04-09T04:18:41.348Z,73.17
2023-04-09T04:21:16.376Z,73.35
2023-04-09T04:23:47.544Z,73.76
2023-04-09T04:26:18.886Z,73.78
2023-04-09T04:28:46.371Z,72.58
2023-04-09T04:31:24.260Z,73.31
2023-04-09T04:33:52.560Z,73.20
2023-04-09T04:36:19.271Z,73.28
2023-04-09T04:38:48.710Z,72.87
2023-04-09T04:41:23.347Z,72.63
2023-04-09T04:43:57.647Z,72.86
2023-04-09T04:46:25.630Z,74.11
2023-04-09T04:48:52.703Z,74.59
2023-04-09T04:51:21.648Z,74.68
2023-04-09T04:54:00.160Z,73.44
2023-04-09T04:56:28.016Z,73.43
2023-04-09T04:59:14.995Z,74.21
2023-04-09T05:01:57.738Z,73.52
2023-04-09T05:04:25.755Z,73.91
2023-04-09T05:06:52.571Z,74.45
2023-04-09T05:09:22.572Z,74.14
2023-04-09T05:12:06.003Z,74.36
2023-04-09T05:14:32.971Z,75.14
2023-04-09T05:16:59.793Z,75.04
2023-04-09T05:19:34.203Z,74.75
2023-04-09T05:22:02.828Z,74.37
2023-04-09T05:24:29.764Z,74.84
2023-04-09T05:26:56.579Z,75.11
2023-04-09T05:29:23.858Z,75.25
2023-04-09T05:31:50.587Z,75.32
2023-04-09T05:34:31.770Z,75.78
2023-04-09T05:36:59.485Z,76.51
2023-04-09T05:39:26.703Z,76.24
2023-04-09T05:41:53.765Z,76.58
2023-04-09T05:44:33.826Z,76.89
2023-04-09T05:47:06.195Z,77.02
2023-04-09T05:49:42.490Z,77.74
2023-04-09T05:52:16.900Z,77.28
2023-04-09T05:54:44.118Z,77.38
2023-04-09T05:57:12.071Z,77.86
2023-04-09T05:59:42.705Z,77.92
2023-04-09T06:02:09.598Z,76.85
2023-04-09T06:04:36.446Z,77.96
2023-04-09T06:07:03.381Z,78.33
2023-04-09T06:09:30.092Z,78.66
2023-04-09T06:11:57.868Z,78.30
2023-04-09T06:14:24.796Z,78.48
2023-04-09T06:16:51.555Z,77.97
2023-04-09T06:19:18.775Z,77.05
2023-04-09T06:21:45.694Z,75.64
2023-04-09T06:24:12.764Z,73.61
2023-04-09T06:26:39.626Z,67.71
2023-04-09T06:29:06.538Z,67.72
2023-04-09T06:31:33.611Z,66.00
2023-04-09T06:34:00.623Z,65.90
2023-04-09T06:36:27.905Z,68.12
2023-04-09T06:38:54.741Z,68.81
2023-04-09T06:41:22.634Z,69.78
2023-04-09T06:43:49.870Z,69.53
2023-04-09T06:46:20.139Z,71.68
2023-04-09T06:48:47.335Z,71.43
2023-04-09T06:51:15.053Z,69.64
2023-04-09T06:53:42.412Z,70.49
2023-04-09T06:56:09.301Z,69.17
2023-04-09T06:58:36.339Z,68.44
2023-04-09T07:01:03.299Z,67.33
2023-04-09T07:03:30.410Z,67.07
2023-04-09T07:05:57.814Z,66.06
2023-04-09T07:08:25.130Z,64.51
2023-04-09T07:10:51.989Z,64.78
2023-04-09T07:13:18.780Z,64.95
2023-04-09T07:15:45.790Z,65.57
2023-04-09T07:18:12.548Z,65.61
2023-04-09T07:20:39.416Z,63.32
2023-04-09T07:23:06.161Z,63.80
2023-04-09T07:25:32.963Z,64.09
2023-04-09T07:27:59.874Z,64.25
2023-04-09T07:30:27.464Z,62.54
2023-04-09T07:32:54.410Z,62.51
2023-04-09T07:35:21.815Z,62.77
2023-04-09T07:37:48.695Z,63.73
2023-04-09T07:40:15.442Z,63.62
2023-04-09T07:42:42.597Z,61.52
2023-04-09T07:45:09.617Z,61.39
2023-04-09T07:47:37.082Z,62.70
2023-04-09T07:50:04.206Z,63.46
2023-04-09T07:52:31.042Z,62.73
2023-04-09T07:54:57.991Z,62.85
2023-04-09T07:57:24.931Z,61.97
2023-04-09T07:59:53.509Z,62.29
2023-04-09T08:02:20.423Z,62.65
2023-04-09T08:04:47.476Z,62.93
2023-04-09T08:07:14.374Z,64.28
2023-04-09T08:09:41.135Z,63.66
2023-04-09T08:12:08.154Z,63.16
2023-04-09T08:14:34.932Z,64.30
2023-04-09T08:17:01.750Z,63.57
2023-04-09T08:19:28.544Z,65.52
2023-04-09T08:21:55.495Z,64.45
2023-04-09T08:24:22.539Z,62.98
2023-04-09T08:26:49.270Z,64.98
2023-04-09T08:29:16.179Z,63.87
2023-04-09T08:31:43.320Z,65.76
2023-04-09T08:34:10.136Z,66.41
2023-04-09T08:36:37.143Z,66.24
2023-04-09T08:39:04.236Z,65.10
2023-04-09T08:41:31.459Z,62.32
2023-04-09T08:43:59.901Z,62.80
2023-04-09T08:46:27.936Z,62.77
2023-04-09T08:48:55.352Z,63.17
2023-04-09T08:51:23.717Z,64.01
2023-04-09T08:53:57.220Z,64.76
2023-04-09T08:56:24.730Z,63.96
2023-04-09T08:58:56.395Z,64.11
2023-04-09T09:01:23.984Z,64.63
2023-04-09T09:04:05.026Z,65.42
2023-04-09T09:06:34.299Z,64.54
2023-04-09T09:09:20.573Z,64.78
2023-04-09T09:11:50.395Z,65.62
2023-04-09T09:14:19.422Z,64.79
2023-04-09T09:16:58.446Z,64.58
2023-04-09T09:19:25.430Z,64.27
2023-04-09T09:22:03.057Z,64.97
2023-04-09T09:24:32.764Z,64.69
2023-04-09T09:26:59.855Z,64.93
2023-04-09T09:29:28.176Z,64.63
2023-04-09T09:31:56.423Z,65.25
2023-04-09T09:34:25.624Z,64.36
2023-04-09T09:36:52.347Z,64.96
2023-04-09T09:39:19.253Z,64.37
2023-04-09T09:41:47.346Z,63.14
2023-04-09T09:44:31.913Z,61.47
2023-04-09T09:46:59.588Z,63.41
2023-04-09T09:49:26.730Z,64.36
2023-04-09T09:51:56.997Z,62.14
2023-04-09T09:54:25.672Z,62.35
2023-04-09T09:56:55.836Z,62.25
2023-04-09T09:59:32.188Z,62.15
2023-04-09T10:02:06.295Z,63.05
2023-04-09T10:04:38.286Z,62.86
2023-04-09T10:07:07.249Z,61.60
2023-04-09T10:09:35.952Z,62.46
2023-04-09T10:12:05.099Z,62.85
2023-04-09T10:14:32.036Z,62.98
2023-04-09T10:16:58.954Z,60.51
2023-04-09T10:19:25.760Z,60.93
2023-04-09T10:21:59.310Z,62.39
2023-04-09T10:24:26.182Z,59.23
2023-04-09T10:27:16.653Z,59.11
2023-04-09T10:29:46.285Z,58.77
2023-04-09T10:32:17.704Z,59.23
2023-04-09T10:34:45.167Z,59.93
2023-04-09T10:37:24.258Z,62.07
2023-04-09T10:39:53.642Z,58.83
2023-04-09T10:42:24.852Z,59.72
2023-04-09T10:45:12.403Z,58.86
2023-04-09T10:47:40.891Z,58.77
2023-04-09T10:50:27.930Z,58.59
2023-04-09T10:53:00.305Z,60.75
2023-04-09T10:55:54.082Z,58.41
2023-04-09T10:58:21.289Z,56.62
2023-04-09T11:00:49.665Z,56.62
2023-04-09T11:03:25.732Z,55.17
2023-04-09T11:06:02.806Z,55.96
2023-04-09T11:08:32.077Z,51.01
2023-04-09T11:11:01.170Z,54.17
2023-04-09T11:13:29.500Z,55.37
2023-04-09T11:15:56.921Z,52.44
2023-04-09T11:18:28.339Z,50.91
2023-04-09T11:21:04.580Z,52.96
2023-04-09T11:23:33.006Z,51.92
2023-04-09T11:25:59.841Z,52.23
2023-04-09T11:28:27.751Z,52.00
2023-04-09T11:30:54.596Z,52.61
2023-04-09T11:33:21.696Z,52.78
2023-04-09T11:35:48.940Z,53.99
2023-04-09T11:38:16.259Z,53.30
2023-04-09T11:40:48.704Z,53.74
2023-04-09T11:43:16.825Z,55.05
2023-04-09T11:45:44.331Z,53.38
2023-04-09T11:48:11.718Z,53.81
2023-04-09T11:50:38.671Z,53.66
2023-04-09T11:53:18.501Z,54.29
2023-04-09T11:55:47.924Z,55.95
2023-04-09T11:58:14.865Z,53.69
2023-04-09T12:00:41.814Z,50.12
2023-04-09T12:03:10.770Z,45.60
2023-04-09T12:05:40.629Z,51.92
2023-04-09T12:08:08.918Z,52.79
2023-04-09T12:10:38.172Z,50.90
2023-04-09T12:13:11.080Z,47.36
2023-04-09T12:15:41.195Z,45.38
2023-04-09T12:18:09.706Z,45.82
2023-04-09T12:20:42.315Z,49.20
2023-04-09T12:23:10.574Z,48.78
2023-04-09T12:25:41.704Z,46.39
2023-04-09T12:28:11.645Z,46.72
2023-04-09T12:30:38.579Z,48.05
2023-04-09T12:33:05.952Z,45.30
2023-04-09T12:35:34.620Z,46.04
2023-04-09T12:38:01.828Z,50.27
2023-04-09T12:40:29.152Z,50.67
2023-04-09T12:42:56.234Z,47.29
2023-04-09T12:45:25.433Z,47.25
2023-04-09T12:47:52.945Z,45.95
2023-04-09T12:50:20.293Z,46.70
2023-04-09T12:52:47.384Z,44.18
2023-04-09T12:55:15.074Z,44.70
2023-04-09T12:57:47.269Z,43.64
2023-04-09T13:00:14.671Z,46.35
2023-04-09T13:02:42.291Z,46.50
2023-04-09T13:05:12.743Z,47.11
2023-04-09T13:07:40.884Z,45.71
2023-04-09T13:10:09.986Z,47.85
2023-04-09T13:12:36.728Z,46.71
2023-04-09T13:15:03.764Z,50.26
2023-04-09T13:17:30.861Z,50.58
2023-04-09T13:19:57.683Z,48.33
2023-04-09T13:22:24.398Z,49.04
2023-04-09T13:24:51.383Z,48.98
2023-04-09T13:27:18.095Z,47.47
2023-04-09T13:29:45.085Z,47.74
2023-04-09T13:32:11.973Z,48.99
2023-04-09T13:34:39.894Z,48.16
2023-04-09T13:37:07.094Z,48.92
2023-04-09T13:39:34.080Z,49.02
2023-04-09T13:42:07.236Z,48.44
2023-04-09T13:44:37.155Z,48.85
2023-04-09T13:47:03.941Z,50.26
2023-04-09T13:49:33.656Z,49.70
2023-04-09T13:52:01.182Z,51.00
2023-04-09T13:54:27.958Z,49.59
2023-04-09T13:56:54.948Z,51.08
2023-04-09T13:59:25.437Z,49.55
2023-04-09T14:01:52.333Z,53.44
2023-04-09T14:04:20.079Z,50.94
2023-04-09T14:06:49.440Z,49.52
2023-04-09T14:09:19.190Z,49.62
2023-04-09T14:11:46.026Z,51.41
2023-04-09T14:14:13.106Z,51.68
2023-04-09T14:16:41.858Z,50.28
2023-04-09T14:19:10.441Z,49.92
2023-04-09T14:24:31.781Z,50.79
2023-04-09T14:27:03.165Z,50.00
2023-04-09T14:29:31.382Z,51.73
2023-04-09T14:31:58.217Z,52.12
2023-04-09T14:34:25.234Z,50.24
2023-04-09T14:36:52.305Z,51.58
2023-04-09T14:39:19.318Z,52.11
2023-04-09T14:41:46.234Z,51.72
2023-04-09T14:44:13.033Z,53.31
2023-04-09T14:46:43.620Z,52.74
2023-04-09T14:49:10.564Z,52.07
2023-04-09T14:51:39.610Z,52.23
2023-04-09T14:54:13.015Z,52.57
2023-04-09T14:56:40.079Z,52.72
2023-04-09T14:59:10.033Z,52.57
2023-04-09T15:01:37.012Z,52.02
2023-04-09T15:04:06.014Z,51.66
2023-04-09T15:06:43.313Z,52.10
2023-04-09T15:09:10.292Z,53.25
2023-04-09T15:11:37.082Z,54.22
2023-04-09T15:14:03.895Z,54.68
2023-04-09T15:16:33.503Z,54.01
2023-04-09T15:19:00.570Z,54.47
2023-04-09T15:21:31.761Z,54.41
2023-04-09T15:23:59.143Z,55.43
2023-04-09T15:26:30.358Z,55.56
2023-04-09T15:29:07.832Z,54.45
2023-04-09T15:31:34.985Z,56.10
2023-04-09T15:34:01.804Z,55.88
2023-04-09T15:36:33.539Z,56.01
2023-04-09T15:39:06.744Z,56.62
2023-04-09T15:41:33.949Z,56.16
2023-04-09T15:44:01.008Z,55.73
2023-04-09T15:46:28.012Z,56.21
2023-04-09T15:48:57.474Z,55.13
2023-04-09T15:51:24.860Z,56.45
2023-04-09T15:53:53.524Z,56.75
2023-04-09T15:56:26.557Z,56.30
2023-04-09T15:58:53.750Z,56.61
2023-04-09T16:01:26.338Z,56.68
2023-04-09T16:03:53.639Z,56.53
2023-04-09T16:06:23.871Z,57.86
2023-04-09T16:08:54.631Z,56.15
2023-04-09T16:11:21.675Z,56.93
2023-04-09T16:13:48.705Z,57.72
2023-04-09T16:16:15.499Z,58.04
2023-04-09T16:18:43.752Z,58.83
2023-04-09T16:21:10.682Z,57.97
2023-04-09T16:23:38.821Z,57.73
2023-04-09T16:26:06.195Z,57.80
2023-04-09T16:28:33.065Z,57.96
2023-04-09T16:30:59.996Z,58.80
2023-04-09T16:33:26.904Z,58.50
2023-04-09T16:35:53.744Z,59.00
2023-04-09T16:38:20.877Z,59.51
2023-04-09T16:40:48.067Z,60.14
2023-04-09T16:43:14.798Z,61.24
2023-04-09T16:45:41.570Z,61.98
2023-04-09T16:48:12.453Z,61.14
2023-04-09T16:50:40.481Z,60.17
2023-04-09T16:53:07.740Z,60.43
2023-04-09T16:55:37.889Z,60.42
2023-04-09T16:58:12.499Z,60.81
2023-04-09T17:00:47.403Z,61.06
2023-04-09T17:03:19.992Z,61.23
2023-04-09T17:06:02.198Z,61.46
2023-04-09T17:08:37.912Z,61.36
2023-04-09T17:11:07.464Z,61.67
2023-04-09T17:13:36.004Z,61.07
2023-04-09T17:16:03.806Z,61.50
2023-04-09T17:18:30.614Z,61.35
2023-04-09T17:20:57.622Z,61.63
2023-04-09T17:23:24.494Z,62.17
2023-04-09T17:25:51.375Z,62.92
2023-04-09T17:28:19.003Z,63.07
2023-04-09T17:30:45.989Z,63.65
2023-04-09T17:33:12.928Z,63.40
2023-04-09T17:35:39.966Z,63.85
2023-04-09T17:38:06.712Z,65.29
2023-04-09T17:40:33.566Z,65.81
2023-04-09T17:43:00.410Z,65.74
2023-04-09T17:45:27.538Z,66.03
2023-04-09T17:47:54.451Z,66.48
2023-04-09T17:50:21.436Z,66.82
2023-04-09T17:52:48.379Z,66.93
2023-04-09T17:55:15.490Z,67.09
2023-04-09T17:57:42.950Z,67.21
2023-04-09T18:00:11.194Z,67.71
2023-04-09T18:02:46.008Z,67.65
2023-04-09T18:05:13.427Z,67.65
2023-04-09T18:07:40.271Z,67.98
2023-04-09T18:10:07.453Z,68.05
2023-04-09T18:12:34.323Z,68.00
2023-04-09T18:15:01.492Z,68.30
2023-04-09T18:17:28.321Z,68.55
2023-04-09T18:19:55.366Z,67.86
2023-04-09T18:22:22.742Z,68.40
2023-04-09T18:24:50.952Z,68.42
2023-04-09T18:27:18.246Z,68.44
2023-04-09T18:29:45.111Z,68.78
2023-04-09T18:32:12.901Z,68.76
2023-04-09T18:34:39.732Z,68.86
2023-04-09T18:37:06.540Z,68.46
2023-04-09T18:39:34.730Z,68.86
2023-04-09T18:42:02.855Z,69.17
2023-04-09T18:44:29.967Z,69.39
2023-04-09T18:46:56.877Z,69.96
2023-04-09T18:49:23.817Z,69.85
2023-04-09T18:51:50.571Z,70.24
2023-04-09T18:54:17.428Z,70.69
2023-04-09T18:56:46.586Z,70.87
2023-04-09T18:59:13.650Z,71.45
2023-04-09T19:01:40.582Z,71.39
2023-04-09T19:04:07.540Z,71.47
2023-04-09T19:06:36.288Z,71.93
2023-04-09T19:09:04.668Z,71.34
2023-04-09T19:11:31.416Z,71.54
2023-04-09T19:13:58.497Z,71.52
2023-04-09T19:16:25.335Z,72.20
2023-04-09T19:18:52.471Z,72.33
2023-04-09T19:21:19.536Z,72.54
2023-04-09T19:23:46.894Z,72.86
2023-04-09T19:26:14.259Z,72.26
2023-04-09T19:28:41.043Z,72.53
2023-04-09T19:31:08.152Z,72.64
2023-04-09T19:33:35.154Z,72.40
2023-04-09T19:36:02.226Z,73.03
2023-04-09T19:38:29.089Z,72.56
2023-04-09T19:40:55.908Z,72.63
2023-04-09T19:43:23.067Z,72.66
2023-04-09T19:45:49.925Z,73.43
2023-04-09T19:48:17.068Z,73.38
2023-04-09T19:50:45.429Z,73.57
2023-04-09T19:53:12.307Z,73.31
2023-04-09T19:55:39.220Z,72.96
2023-04-09T19:58:06.960Z,73.33
2023-04-09T20:00:34.493Z,73.17
2023-04-09T20:03:01.731Z,73.31
2023-04-09T20:05:29.533Z,73.21
2023-04-09T20:07:56.541Z,73.95
2023-04-09T20:10:23.525Z,73.94
2023-04-09T20:12:51.381Z,73.98
2023-04-09T20:15:20.254Z,74.81
2023-04-09T20:17:51.402Z,74.87
2023-04-09T20:20:19.931Z,74.55
2023-04-09T20:22:55.513Z,74.92
2023-04-09T20:25:24.434Z,74.85
2023-04-09T20:27:54.688Z,75.44
2023-04-09T20:30:21.599Z,75.43
2023-04-09T20:32:49.229Z,75.60
2023-04-09T20:35:16.531Z,75.42
2023-04-09T20:37:43.500Z,75.25
2023-04-09T20:40:12.062Z,75.25
2023-04-09T20:42:41.351Z,75.54
2023-04-09T20:45:09.693Z,76.05
2023-04-09T20:47:37.005Z,76.03
2023-04-09T20:50:04.217Z,75.75
2023-04-09T20:52:31.594Z,75.92
2023-04-09T20:54:58.931Z,76.24
2023-04-09T20:57:25.960Z,76.35
2023-04-09T20:59:55.780Z,76.24
2023-04-09T21:02:23.752Z,76.32
2023-04-09T21:04:50.877Z,76.65
2023-04-09T21:07:17.839Z,76.56
2023-04-09T21:09:45.597Z,76.47
2023-04-09T21:12:12.520Z,77.08
2023-04-09T21:14:39.491Z,77.02
2023-04-09T21:17:06.538Z,76.94
2023-04-09T21:19:33.565Z,76.66
2023-04-09T21:22:00.807Z,75.99
2023-04-09T21:24:28.104Z,76.13
2023-04-09T21:26:55.572Z,76.27
2023-04-09T21:29:22.541Z,75.92
2023-04-09T21:31:50.059Z,76.17
2023-04-09T21:34:17.011Z,76.47
2023-04-09T21:36:45.587Z,76.44
2023-04-09T21:39:13.360Z,76.18
2023-04-09T21:41:58.409Z,76.71
2023-04-09T21:44:26.476Z,75.99
2023-04-09T21:46:53.457Z,76.07
2023-04-09T21:49:20.320Z,76.13
2023-04-09T21:51:47.242Z,76.37
2023-04-09T21:54:17.309Z,76.61
2023-04-09T21:56:46.449Z,76.29
2023-04-09T21:59:13.421Z,76.65
2023-04-09T22:01:40.532Z,76.91
2023-04-09T22:04:07.502Z,76.79
2023-04-09T22:06:34.717Z,77.12
2023-04-09T22:09:02.148Z,77.04
2023-04-09T22:11:30.709Z,77.21
2023-04-09T22:13:57.917Z,77.39
2023-04-09T22:16:25.666Z,77.27
2023-04-09T22:19:02.648Z,77.47
2023-04-09T22:25:07.047Z,79.26
2023-04-09T22:27:34.427Z,78.78
2023-04-09T22:30:01.644Z,78.92
2023-04-09T22:32:29.020Z,79.08
2023-04-09T22:34:56.074Z,79.04
2023-04-09T22:39:49.974Z,79.20
2023-04-09T22:42:16.974Z,78.93
2023-04-09T22:44:43.817Z,78.33
2023-04-09T22:47:11.125Z,78.65
2023-04-09T22:49:38.793Z,79.18
2023-04-09T22:52:05.886Z,79.42
2023-04-09T22:54:32.708Z,79.75
2023-04-09T22:56:59.586Z,79.91
2023-04-09T22:59:39.075Z,79.41
2023-04-09T23:02:06.537Z,78.90
2023-04-09T23:04:35.005Z,78.92
2023-04-09T23:07:02.569Z,79.07
2023-04-09T23:09:31.055Z,77.33
2023-04-09T23:11:58.065Z,77.17
2023-04-09T23:14:25.208Z,77.17
2023-04-09T23:16:52.088Z,77.25
2023-04-09T23:19:19.016Z,76.55
2023-04-09T23:21:46.066Z,76.84
2023-04-09T23:24:13.003Z,76.42
2023-04-09T23:26:43.274Z,78.41
2023-04-09T23:29:10.375Z,79.38
2023-04-09T23:31:40.848Z,78.91
2023-04-09T23:34:13.141Z,78.62
2023-04-09T23:36:40.184Z,78.45
2023-04-09T23:39:07.163Z,78.90
2023-04-09T23:41:34.046Z,78.62
2023-04-09T23:44:01.312Z,79.13
2023-04-09T23:46:28.719Z,79.09
2023-04-09T23:48:55.792Z,79.15
2023-04-09T23:53:08.899Z,78.76
